sensor_id;sensor_type;location;lat;lon;timestamp;temperature;humidity
70813;DHT22;62099;52.170;5.386;2022-10-31T00:01:25;12.00;84.80
70813;DHT22;62099;52.170;5.386;2022-10-31T00:03:53;13.60;85.50
70813;DHT22;62099;52.170;5.386;2022-10-31T00:06:21;15.00;86.00
70813;DHT22;62099;52.170;5.386;2022-10-31T00:08:53;13.70;85.30
70813;DHT22;62099;52.170;5.386;2022-10-31T00:11:20;12.30;84.80
70813;DHT22;62099;52.170;5.386;2022-10-31T00:13:47;12.30;84.80
70813;DHT22;62099;52.170;5.386;2022-10-31T00:16:19;12.20;84.80
70813;DHT22;62099;52.170;5.386;2022-10-31T00:18:50;14.40;85.70
70813;DHT22;62099;52.170;5.386;2022-10-31T00:23:44;12.20;84.60
70813;DHT22;62099;52.170;5.386;2022-10-31T00:26:10;12.20;84.50
70813;DHT22;62099;52.170;5.386;2022-10-31T00:28:37;13.20;81.20
70813;DHT22;62099;52.170;5.386;2022-10-31T00:31:05;13.20;81.20
70813;DHT22;62099;52.170;5.386;2022-10-31T00:33:36;12.10;81.50
70813;DHT22;62099;52.170;5.386;2022-10-31T00:36:05;13.70;85.10
70813;DHT22;62099;52.170;5.386;2022-10-31T00:38:32;13.70;85.00
70813;DHT22;62099;52.170;5.386;2022-10-31T00:40:59;13.20;81.00
70813;DHT22;62099;52.170;5.386;2022-10-31T00:43:26;11.70;84.30
70813;DHT22;62099;52.170;5.386;2022-10-31T00:45:53;12.00;84.30
70813;DHT22;62099;52.170;5.386;2022-10-31T00:48:22;12.00;84.30
70813;DHT22;62099;52.170;5.386;2022-10-31T00:53:16;12.20;84.30
70813;DHT22;62099;52.170;5.386;2022-10-31T00:55:43;14.10;85.10
70813;DHT22;62099;52.170;5.386;2022-10-31T01:00:37;15.30;85.60
70813;DHT22;62099;52.170;5.386;2022-10-31T01:03:04;13.40;84.70
70813;DHT22;62099;52.170;5.386;2022-10-31T01:05:30;13.40;84.80
70813;DHT22;62099;52.170;5.386;2022-10-31T01:07:58;14.80;85.30
70813;DHT22;62099;52.170;5.386;2022-10-31T01:10:26;14.60;85.40
70813;DHT22;62099;52.170;5.386;2022-10-31T01:15:22;14.90;83.80
70813;DHT22;62099;52.170;5.386;2022-10-31T01:20:16;11.70;84.60
70813;DHT22;62099;52.170;5.386;2022-10-31T01:22:43;14.40;85.90
70813;DHT22;62099;52.170;5.386;2022-10-31T01:25:11;11.70;84.70
70813;DHT22;62099;52.170;5.386;2022-10-31T01:30:06;11.80;84.90
70813;DHT22;62099;52.170;5.386;2022-10-31T01:32:33;11.70;84.80
70813;DHT22;62099;52.170;5.386;2022-10-31T01:37:27;13.60;85.70
70813;DHT22;62099;52.170;5.386;2022-10-31T01:39:54;12.10;85.10
70813;DHT22;62099;52.170;5.386;2022-10-31T01:42:22;14.10;86.20
70813;DHT22;62099;52.170;5.386;2022-10-31T01:44:56;12.90;85.60
70813;DHT22;62099;52.170;5.386;2022-10-31T01:47:37;14.10;86.20
70813;DHT22;62099;52.170;5.386;2022-10-31T01:50:15;12.30;81.00
70813;DHT22;62099;52.170;5.386;2022-10-31T01:52:46;11.30;85.30
70813;DHT22;62099;52.170;5.386;2022-10-31T01:55:20;13.50;86.10
70813;DHT22;62099;52.170;5.386;2022-10-31T01:57:59;12.50;82.20
70813;DHT22;62099;52.170;5.386;2022-10-31T02:00:28;11.00;85.10
70813;DHT22;62099;52.170;5.386;2022-10-31T02:02:55;11.30;85.30
70813;DHT22;62099;52.170;5.386;2022-10-31T02:05:26;13.50;82.20
70813;DHT22;62099;52.170;5.386;2022-10-31T02:07:59;14.20;86.70
70813;DHT22;62099;52.170;5.386;2022-10-31T02:10:30;11.10;85.40
70813;DHT22;62099;52.170;5.386;2022-10-31T02:12:58;11.10;85.40
70813;DHT22;62099;52.170;5.386;2022-10-31T02:15:28;11.30;85.40
70813;DHT22;62099;52.170;5.386;2022-10-31T02:17:56;11.10;85.50
70813;DHT22;62099;52.170;5.386;2022-10-31T02:20:25;14.20;86.90
70813;DHT22;62099;52.170;5.386;2022-10-31T02:43:27;11.10;86.10
70813;DHT22;62099;52.170;5.386;2022-10-31T02:45:58;10.40;85.70
70813;DHT22;62099;52.170;5.386;2022-10-31T02:48:28;10.40;85.80
70813;DHT22;62099;52.170;5.386;2022-10-31T02:51:02;10.50;85.90
70813;DHT22;62099;52.170;5.386;2022-10-31T02:53:34;10.80;86.00
70813;DHT22;62099;52.170;5.386;2022-10-31T02:56:12;11.50;81.60
70813;DHT22;62099;52.170;5.386;2022-10-31T02:58:49;11.50;81.70
70813;DHT22;62099;52.170;5.386;2022-10-31T03:04:16;10.10;82.70
70813;DHT22;62099;52.170;5.386;2022-10-31T03:12:29;11.40;82.00
70813;DHT22;62099;52.170;5.386;2022-10-31T03:18:03;11.30;82.10
70813;DHT22;62099;52.170;5.386;2022-10-31T03:20:37;11.20;82.20
70813;DHT22;62099;52.170;5.386;2022-10-31T03:23:04;11.10;82.60
70813;DHT22;62099;52.170;5.386;2022-10-31T03:25:32;12.80;87.00
70813;DHT22;62099;52.170;5.386;2022-10-31T03:28:02;11.10;82.30
70813;DHT22;62099;52.170;5.386;2022-10-31T03:30:35;10.10;87.10
70813;DHT22;62099;52.170;5.386;2022-10-31T03:33:06;11.10;82.40
70813;DHT22;62099;52.170;5.386;2022-10-31T03:35:40;11.90;87.80
70813;DHT22;62099;52.170;5.386;2022-10-31T03:38:10;9.60;86.90
70813;DHT22;62099;52.170;5.386;2022-10-31T03:40:40;12.30;88.10
70813;DHT22;62099;52.170;5.386;2022-10-31T03:43:11;11.00;82.50
70813;DHT22;62099;52.170;5.386;2022-10-31T03:45:44;10.10;87.30
70813;DHT22;62099;52.170;5.386;2022-10-31T03:48:13;10.80;87.70
70813;DHT22;62099;52.170;5.386;2022-10-31T03:53:26;11.10;82.90
70813;DHT22;62099;52.170;5.386;2022-10-31T03:56:10;9.90;87.50
70813;DHT22;62099;52.170;5.386;2022-10-31T03:58:47;9.90;87.50
70813;DHT22;62099;52.170;5.386;2022-10-31T04:01:17;10.90;88.00
70813;DHT22;62099;52.170;5.386;2022-10-31T04:06:17;10.90;82.90
70813;DHT22;62099;52.170;5.386;2022-10-31T04:08:50;9.80;87.30
70813;DHT22;62099;52.170;5.386;2022-10-31T04:11:21;10.30;87.90
70813;DHT22;62099;52.170;5.386;2022-10-31T04:14:10;13.00;89.10
70813;DHT22;62099;52.170;5.386;2022-10-31T04:16:40;9.80;87.80
70813;DHT22;62099;52.170;5.386;2022-10-31T04:19:07;9.70;87.80
70813;DHT22;62099;52.170;5.386;2022-10-31T04:24:01;10.80;83.10
70813;DHT22;62099;52.170;5.386;2022-10-31T04:26:29;9.50;86.20
70813;DHT22;62099;52.170;5.386;2022-10-31T04:28:57;9.60;87.90
70813;DHT22;62099;52.170;5.386;2022-10-31T04:31:26;12.90;89.50
70813;DHT22;62099;52.170;5.386;2022-10-31T04:33:53;10.90;83.80
70813;DHT22;62099;52.170;5.386;2022-10-31T04:36:19;12.70;88.90
70813;DHT22;62099;52.170;5.386;2022-10-31T04:38:46;9.50;88.10
70813;DHT22;62099;52.170;5.386;2022-10-31T04:41:33;10.80;88.80
70813;DHT22;62099;52.170;5.386;2022-10-31T04:44:01;10.20;88.70
70813;DHT22;62099;52.170;5.386;2022-10-31T04:46:28;10.70;89.00
70813;DHT22;62099;52.170;5.386;2022-10-31T04:48:56;11.30;89.40
70813;DHT22;62099;52.170;5.386;2022-10-31T04:51:23;10.50;84.40
70813;DHT22;62099;52.170;5.386;2022-10-31T04:53:50;9.00;88.50
70813;DHT22;62099;52.170;5.386;2022-10-31T04:56:26;9.20;88.60
70813;DHT22;62099;52.170;5.386;2022-10-31T04:58:58;9.30;85.80
70813;DHT22;62099;52.170;5.386;2022-10-31T05:01:28;9.30;88.70
70813;DHT22;62099;52.170;5.386;2022-10-31T05:03:57;10.50;87.30
70813;DHT22;62099;52.170;5.386;2022-10-31T05:06:24;10.90;88.00
70813;DHT22;62099;52.170;5.386;2022-10-31T05:11:18;11.40;89.70
70813;DHT22;62099;52.170;5.386;2022-10-31T05:13:45;10.40;84.80
70813;DHT22;62099;52.170;5.386;2022-10-31T05:16:12;9.80;89.50
70813;DHT22;62099;52.170;5.386;2022-10-31T05:19:14;12.50;90.30
70813;DHT22;62099;52.170;5.386;2022-10-31T05:24:40;12.00;85.50
70813;DHT22;62099;52.170;5.386;2022-10-31T05:27:08;8.60;89.00
70813;DHT22;62099;52.170;5.386;2022-10-31T05:29:35;12.40;90.20
70813;DHT22;62099;52.170;5.386;2022-10-31T05:32:02;9.40;88.70
70813;DHT22;62099;52.170;5.386;2022-10-31T05:37:51;12.50;90.20
70813;DHT22;62099;52.170;5.386;2022-10-31T05:40:18;10.40;84.30
70813;DHT22;62099;52.170;5.386;2022-10-31T05:42:47;10.50;90.00
70813;DHT22;62099;52.170;5.386;2022-10-31T05:45:17;12.00;88.90
70813;DHT22;62099;52.170;5.386;2022-10-31T05:47:55;10.30;84.50
70813;DHT22;62099;52.170;5.386;2022-10-31T05:53:11;9.20;87.40
70813;DHT22;62099;52.170;5.386;2022-10-31T05:55:39;9.70;89.70
70813;DHT22;62099;52.170;5.386;2022-10-31T05:58:27;10.10;89.90
70813;DHT22;62099;52.170;5.386;2022-10-31T06:01:01;11.10;90.10
70813;DHT22;62099;52.170;5.386;2022-10-31T06:03:28;9.30;89.70
70813;DHT22;62099;52.170;5.386;2022-10-31T06:05:56;8.80;89.50
70813;DHT22;62099;52.170;5.386;2022-10-31T06:08:36;9.30;89.70
70813;DHT22;62099;52.170;5.386;2022-10-31T06:11:11;9.10;88.60
70813;DHT22;62099;52.170;5.386;2022-10-31T06:13:57;9.40;89.90
70813;DHT22;62099;52.170;5.386;2022-10-31T06:16:31;11.10;90.30
70813;DHT22;62099;52.170;5.386;2022-10-31T06:19:07;9.90;90.00
70813;DHT22;62099;52.170;5.386;2022-10-31T06:21:34;12.40;90.60
70813;DHT22;62099;52.170;5.386;2022-10-31T06:24:01;9.30;90.00
70813;DHT22;62099;52.170;5.386;2022-10-31T06:26:46;12.30;90.60
70813;DHT22;62099;52.170;5.386;2022-10-31T06:29:14;12.50;90.60
70813;DHT22;62099;52.170;5.386;2022-10-31T06:34:42;9.00;90.00
70813;DHT22;62099;52.170;5.386;2022-10-31T06:37:10;10.30;85.20
70813;DHT22;62099;52.170;5.386;2022-10-31T06:39:40;12.60;90.70
70813;DHT22;62099;52.170;5.386;2022-10-31T06:44:36;9.10;86.70
70813;DHT22;62099;52.170;5.386;2022-10-31T06:47:22;9.10;87.90
70813;DHT22;62099;52.170;5.386;2022-10-31T06:54:52;10.30;85.20
70813;DHT22;62099;52.170;5.386;2022-10-31T06:57:20;8.50;90.00
70813;DHT22;62099;52.170;5.386;2022-10-31T06:59:47;8.70;90.00
70813;DHT22;62099;52.170;5.386;2022-10-31T07:04:44;11.10;90.40
70813;DHT22;62099;52.170;5.386;2022-10-31T07:07:13;9.30;89.30
70813;DHT22;62099;52.170;5.386;2022-10-31T07:09:40;9.20;90.10
70813;DHT22;62099;52.170;5.386;2022-10-31T07:12:09;9.40;90.10
70813;DHT22;62099;52.170;5.386;2022-10-31T07:14:39;9.40;90.10
70813;DHT22;62099;52.170;5.386;2022-10-31T07:17:06;9.20;87.40
70813;DHT22;62099;52.170;5.386;2022-10-31T07:19:38;9.70;90.20
70813;DHT22;62099;52.170;5.386;2022-10-31T07:27:18;9.20;89.90
70813;DHT22;62099;52.170;5.386;2022-10-31T07:29:47;9.50;90.00
70813;DHT22;62099;52.170;5.386;2022-10-31T07:32:15;9.10;89.90
70813;DHT22;62099;52.170;5.386;2022-10-31T07:37:18;10.10;90.10
70813;DHT22;62099;52.170;5.386;2022-10-31T07:39:45;10.40;85.50
70813;DHT22;62099;52.170;5.386;2022-10-31T07:42:12;12.90;90.80
70813;DHT22;62099;52.170;5.386;2022-10-31T07:50:17;10.70;85.60
70813;DHT22;62099;52.170;5.386;2022-10-31T07:53:14;10.70;85.10
70813;DHT22;62099;52.170;5.386;2022-10-31T07:55:49;11.60;90.50
70813;DHT22;62099;52.170;5.386;2022-10-31T07:58:17;13.30;90.80
70813;DHT22;62099;52.170;5.386;2022-10-31T08:00:46;13.10;90.80
70813;DHT22;62099;52.170;5.386;2022-10-31T08:09:02;12.40;90.60
70813;DHT22;62099;52.170;5.386;2022-10-31T08:11:30;10.40;90.20
70813;DHT22;62099;52.170;5.386;2022-10-31T08:13:57;9.80;90.10
70813;DHT22;62099;52.170;5.386;2022-10-31T08:18:56;13.80;89.20
70813;DHT22;62099;52.170;5.386;2022-10-31T08:23:50;12.70;90.50
70813;DHT22;62099;52.170;5.386;2022-10-31T08:28:48;10.70;89.80
70813;DHT22;62099;52.170;5.386;2022-10-31T08:31:18;13.60;90.50
70813;DHT22;62099;52.170;5.386;2022-10-31T08:33:45;12.00;88.10
70813;DHT22;62099;52.170;5.386;2022-10-31T08:36:31;12.70;90.10
70813;DHT22;62099;52.170;5.386;2022-10-31T08:39:13;14.90;90.50
70813;DHT22;62099;52.170;5.386;2022-10-31T08:44:10;11.40;88.90
70813;DHT22;62099;52.170;5.386;2022-10-31T08:46:37;12.60;85.20
70813;DHT22;62099;52.170;5.386;2022-10-31T08:49:04;13.60;89.70
70813;DHT22;62099;52.170;5.386;2022-10-31T08:51:31;14.80;90.00
70813;DHT22;62099;52.170;5.386;2022-10-31T08:53:57;11.10;85.80
70813;DHT22;62099;52.170;5.386;2022-10-31T08:57:02;12.50;84.40
70813;DHT22;62099;52.170;5.386;2022-10-31T08:59:42;12.10;89.20
70813;DHT22;62099;52.170;5.386;2022-10-31T09:02:21;14.70;90.10
70813;DHT22;62099;52.170;5.386;2022-10-31T09:07:22;13.30;90.10
70813;DHT22;62099;52.170;5.386;2022-10-31T09:09:49;11.30;89.30
70813;DHT22;62099;52.170;5.386;2022-10-31T09:15:08;11.40;89.70
70813;DHT22;62099;52.170;5.386;2022-10-31T09:18:08;11.40;89.70
70813;DHT22;62099;52.170;5.386;2022-10-31T09:20:49;12.60;87.80
70813;DHT22;62099;52.170;5.386;2022-10-31T09:23:21;12.40;89.70
70813;DHT22;62099;52.170;5.386;2022-10-31T09:25:49;15.40;90.50
70813;DHT22;62099;52.170;5.386;2022-10-31T09:28:32;13.90;88.50
70813;DHT22;62099;52.170;5.386;2022-10-31T09:31:06;15.20;90.40
70813;DHT22;62099;52.170;5.386;2022-10-31T09:36:31;12.80;88.30
70813;DHT22;62099;52.170;5.386;2022-10-31T09:47:22;14.40;84.30
70813;DHT22;62099;52.170;5.386;2022-10-31T09:50:22;16.80;89.00
70813;DHT22;62099;52.170;5.386;2022-10-31T09:53:08;14.60;83.10
70813;DHT22;62099;52.170;5.386;2022-10-31T09:55:40;17.10;88.40
70813;DHT22;62099;52.170;5.386;2022-10-31T09:58:15;15.00;87.00
70813;DHT22;62099;52.170;5.386;2022-10-31T10:00:43;13.70;84.40
70813;DHT22;62099;52.170;5.386;2022-10-31T10:03:47;14.20;86.20
70813;DHT22;62099;52.170;5.386;2022-10-31T10:06:45;16.80;87.00
70813;DHT22;62099;52.170;5.386;2022-10-31T10:09:31;13.90;85.00
70813;DHT22;62099;52.170;5.386;2022-10-31T10:21:09;14.30;80.70
70813;DHT22;62099;52.170;5.386;2022-10-31T10:29:34;15.60;81.30
70813;DHT22;62099;52.170;5.386;2022-10-31T10:32:09;14.90;84.20
70813;DHT22;62099;52.170;5.386;2022-10-31T10:34:44;14.40;83.50
70813;DHT22;62099;52.170;5.386;2022-10-31T10:37:22;18.00;84.50
70813;DHT22;62099;52.170;5.386;2022-10-31T10:40:01;15.90;79.60
70813;DHT22;62099;52.170;5.386;2022-10-31T10:42:31;14.50;83.30
70813;DHT22;62099;52.170;5.386;2022-10-31T10:45:19;15.90;79.60
70813;DHT22;62099;52.170;5.386;2022-10-31T10:48:10;15.00;81.10
70813;DHT22;62099;52.170;5.386;2022-10-31T10:50:47;15.00;82.30
70813;DHT22;62099;52.170;5.386;2022-10-31T10:53:55;16.20;82.60
70813;DHT22;62099;52.170;5.386;2022-10-31T10:56:51;17.10;83.10
70813;DHT22;62099;52.170;5.386;2022-10-31T10:59:21;16.80;82.50
70813;DHT22;62099;52.170;5.386;2022-10-31T11:01:50;15.30;81.40
70813;DHT22;62099;52.170;5.386;2022-10-31T11:09:26;15.90;81.60
70813;DHT22;62099;52.170;5.386;2022-10-31T11:11:54;19.10;82.60
70813;DHT22;62099;52.170;5.386;2022-10-31T11:14:22;17.00;81.30
70813;DHT22;62099;52.170;5.386;2022-10-31T11:16:55;16.80;78.30
70813;DHT22;62099;52.170;5.386;2022-10-31T11:19:33;17.10;81.30
70813;DHT22;62099;52.170;5.386;2022-10-31T11:22:06;17.20;78.50
70813;DHT22;62099;52.170;5.386;2022-10-31T11:24:39;18.70;82.60
70813;DHT22;62099;52.170;5.386;2022-10-31T11:27:11;17.50;77.90
70813;DHT22;62099;52.170;5.386;2022-10-31T11:29:39;17.70;79.30
70813;DHT22;62099;52.170;5.386;2022-10-31T11:32:23;17.90;78.60
70813;DHT22;62099;52.170;5.386;2022-10-31T11:34:58;19.70;79.40
70813;DHT22;62099;52.170;5.386;2022-10-31T11:37:27;17.40;78.10
70813;DHT22;62099;52.170;5.386;2022-10-31T11:39:57;18.30;78.30
70813;DHT22;62099;52.170;5.386;2022-10-31T11:42:29;17.60;75.00
70813;DHT22;62099;52.170;5.386;2022-10-31T11:45:06;16.40;77.80
70813;DHT22;62099;52.170;5.386;2022-10-31T11:47:33;16.80;77.30
70813;DHT22;62099;52.170;5.386;2022-10-31T11:50:02;17.80;78.50
70813;DHT22;62099;52.170;5.386;2022-10-31T11:52:38;17.50;77.50
70813;DHT22;62099;52.170;5.386;2022-10-31T11:57:46;17.90;74.50
70813;DHT22;62099;52.170;5.386;2022-10-31T12:05:44;17.60;73.80
70813;DHT22;62099;52.170;5.386;2022-10-31T12:08:13;17.50;74.10
70813;DHT22;62099;52.170;5.386;2022-10-31T12:10:54;16.40;76.50
70813;DHT22;62099;52.170;5.386;2022-10-31T12:13:38;17.00;76.90
70813;DHT22;62099;52.170;5.386;2022-10-31T12:16:18;19.10;78.20
70813;DHT22;62099;52.170;5.386;2022-10-31T12:19:03;15.90;76.70
70813;DHT22;62099;52.170;5.386;2022-10-31T12:41:28;17.40;79.10
70813;DHT22;62099;52.170;5.386;2022-10-31T12:49:17;17.50;75.50
70813;DHT22;62099;52.170;5.386;2022-10-31T12:55:06;17.70;75.00
70813;DHT22;62099;52.170;5.386;2022-10-31T12:57:36;17.80;77.20
70813;DHT22;62099;52.170;5.386;2022-10-31T13:00:15;16.80;76.40
70813;DHT22;62099;52.170;5.386;2022-10-31T13:05:57;17.70;74.30
70813;DHT22;62099;52.170;5.386;2022-10-31T13:08:39;17.90;74.20
70813;DHT22;62099;52.170;5.386;2022-10-31T13:11:14;17.80;73.90
70813;DHT22;62099;52.170;5.386;2022-10-31T13:13:51;16.80;75.80
70813;DHT22;62099;52.170;5.386;2022-10-31T13:16:22;17.70;73.50
70813;DHT22;62099;52.170;5.386;2022-10-31T13:18:59;19.80;78.00
70813;DHT22;62099;52.170;5.386;2022-10-31T13:21:30;16.50;77.60
70813;DHT22;62099;52.170;5.386;2022-10-31T13:24:02;17.30;74.10
70813;DHT22;62099;52.170;5.386;2022-10-31T13:26:40;17.90;77.30
70813;DHT22;62099;52.170;5.386;2022-10-31T13:32:00;17.20;74.50
70813;DHT22;62099;52.170;5.386;2022-10-31T13:34:46;16.10;76.70
70813;DHT22;62099;52.170;5.386;2022-10-31T13:40:09;17.10;74.30
70813;DHT22;62099;52.170;5.386;2022-10-31T13:43:20;16.80;77.90
70813;DHT22;62099;52.170;5.386;2022-10-31T13:45:51;16.10;77.50
70813;DHT22;62099;52.170;5.386;2022-10-31T13:48:39;18.30;78.80
70813;DHT22;62099;52.170;5.386;2022-10-31T13:51:10;19.20;78.70
70813;DHT22;62099;52.170;5.386;2022-10-31T13:53:43;17.30;75.20
70813;DHT22;62099;52.170;5.386;2022-10-31T13:56:28;16.30;77.30
70813;DHT22;62099;52.170;5.386;2022-10-31T14:01:28;16.90;77.00
70813;DHT22;62099;52.170;5.386;2022-10-31T14:04:02;17.50;74.80
70813;DHT22;62099;52.170;5.386;2022-10-31T14:09:36;19.80;78.60
70813;DHT22;62099;52.170;5.386;2022-10-31T14:12:07;17.40;74.60
70813;DHT22;62099;52.170;5.386;2022-10-31T14:14:43;18.90;78.00
70813;DHT22;62099;52.170;5.386;2022-10-31T14:17:35;17.30;74.90
70813;DHT22;62099;52.170;5.386;2022-10-31T14:22:39;16.60;77.50
70813;DHT22;62099;52.170;5.386;2022-10-31T14:27:58;17.20;75.30
70813;DHT22;62099;52.170;5.386;2022-10-31T14:30:27;17.70;78.50
70813;DHT22;62099;52.170;5.386;2022-10-31T14:33:02;16.10;78.00
70813;DHT22;62099;52.170;5.386;2022-10-31T14:38:48;15.60;77.80
70813;DHT22;62099;52.170;5.386;2022-10-31T14:49:55;16.90;75.90
70813;DHT22;62099;52.170;5.386;2022-10-31T14:52:26;17.00;76.00
70813;DHT22;62099;52.170;5.386;2022-10-31T14:54:54;16.70;78.50
70813;DHT22;62099;52.170;5.386;2022-10-31T14:57:29;17.40;78.90
70813;DHT22;62099;52.170;5.386;2022-10-31T15:00:12;18.40;79.70
70813;DHT22;62099;52.170;5.386;2022-10-31T15:05:28;16.00;78.70
70813;DHT22;62099;52.170;5.386;2022-10-31T15:07:57;16.60;76.30
70813;DHT22;62099;52.170;5.386;2022-10-31T15:10:29;16.10;78.80
70813;DHT22;62099;52.170;5.386;2022-10-31T15:13:09;15.80;78.80
70813;DHT22;62099;52.170;5.386;2022-10-31T15:15:36;16.70;79.20
70813;DHT22;62099;52.170;5.386;2022-10-31T15:18:04;16.60;76.60
70813;DHT22;62099;52.170;5.386;2022-10-31T15:20:42;16.20;79.20
70813;DHT22;62099;52.170;5.386;2022-10-31T15:23:16;18.20;80.20
70813;DHT22;62099;52.170;5.386;2022-10-31T15:25:43;15.80;79.30
70813;DHT22;62099;52.170;5.386;2022-10-31T15:28:21;15.20;79.20
70813;DHT22;62099;52.170;5.386;2022-10-31T15:31:00;16.40;77.00
70813;DHT22;62099;52.170;5.386;2022-10-31T15:33:29;15.20;79.40
70813;DHT22;62099;52.170;5.386;2022-10-31T15:36:04;17.70;80.60
70813;DHT22;62099;52.170;5.386;2022-10-31T15:38:31;16.30;77.30
70813;DHT22;62099;52.170;5.386;2022-10-31T15:41:03;17.40;77.60
70813;DHT22;62099;52.170;5.386;2022-10-31T15:43:38;15.50;80.10
70813;DHT22;62099;52.170;5.386;2022-10-31T15:46:07;16.70;80.40
70813;DHT22;62099;52.170;5.386;2022-10-31T15:48:36;15.40;79.80
70813;DHT22;62099;52.170;5.386;2022-10-31T15:51:05;16.20;77.40
70813;DHT22;62099;52.170;5.386;2022-10-31T15:56:01;17.50;80.90
70813;DHT22;62099;52.170;5.386;2022-10-31T15:58:28;16.20;80.40
70813;DHT22;62099;52.170;5.386;2022-10-31T16:01:21;16.40;80.60
70813;DHT22;62099;52.170;5.386;2022-10-31T16:06:39;17.60;81.60
70813;DHT22;62099;52.170;5.386;2022-10-31T16:09:21;17.70;81.40
70813;DHT22;62099;52.170;5.386;2022-10-31T16:11:50;15.90;80.70
70813;DHT22;62099;52.170;5.386;2022-10-31T16:14:19;17.10;81.40
70813;DHT22;62099;52.170;5.386;2022-10-31T16:16:53;16.80;81.20
70813;DHT22;62099;52.170;5.386;2022-10-31T16:19:32;14.30;80.30
70813;DHT22;62099;52.170;5.386;2022-10-31T16:22:18;14.60;80.50
70813;DHT22;62099;52.170;5.386;2022-10-31T16:24:56;16.80;81.40
70813;DHT22;62099;52.170;5.386;2022-10-31T16:27:26;16.10;81.20
70813;DHT22;62099;52.170;5.386;2022-10-31T16:29:56;14.90;80.70
70813;DHT22;62099;52.170;5.386;2022-10-31T16:32:51;14.80;80.60
70813;DHT22;62099;52.170;5.386;2022-10-31T16:35:25;14.70;80.80
70813;DHT22;62099;52.170;5.386;2022-10-31T16:37:52;14.60;80.80
70813;DHT22;62099;52.170;5.386;2022-10-31T16:40:19;16.40;81.80
70813;DHT22;62099;52.170;5.386;2022-10-31T16:42:47;14.10;80.90
70813;DHT22;62099;52.170;5.386;2022-10-31T16:45:20;15.10;81.60
70813;DHT22;62099;52.170;5.386;2022-10-31T16:50:22;14.70;78.70
70813;DHT22;62099;52.170;5.386;2022-10-31T16:52:50;17.30;83.00
70813;DHT22;62099;52.170;5.386;2022-10-31T16:55:54;16.30;82.90
70813;DHT22;62099;52.170;5.386;2022-10-31T16:58:32;14.20;81.80
70813;DHT22;62099;52.170;5.386;2022-10-31T17:01:01;14.20;82.00
70813;DHT22;62099;52.170;5.386;2022-10-31T17:03:28;14.20;82.30
70813;DHT22;62099;52.170;5.386;2022-10-31T17:05:54;15.10;82.80
70813;DHT22;62099;52.170;5.386;2022-10-31T17:08:22;14.00;82.40
70813;DHT22;62099;52.170;5.386;2022-10-31T17:10:54;14.20;82.70
70813;DHT22;62099;52.170;5.386;2022-10-31T17:13:24;14.80;79.50
70813;DHT22;62099;52.170;5.386;2022-10-31T17:15:53;17.00;84.10
70813;DHT22;62099;52.170;5.386;2022-10-31T17:18:20;15.00;80.30
70813;DHT22;62099;52.170;5.386;2022-10-31T17:21:02;14.30;83.00
70813;DHT22;62099;52.170;5.386;2022-10-31T17:23:30;14.30;83.00
70813;DHT22;62099;52.170;5.386;2022-10-31T17:25:58;16.60;83.90
70813;DHT22;62099;52.170;5.386;2022-10-31T17:28:25;13.90;80.50
70813;DHT22;62099;52.170;5.386;2022-10-31T17:30:54;14.90;80.30
70813;DHT22;62099;52.170;5.386;2022-10-31T17:33:21;14.00;83.00
70813;DHT22;62099;52.170;5.386;2022-10-31T17:35:47;14.90;80.50
70813;DHT22;62099;52.170;5.386;2022-10-31T17:40:41;14.60;83.60
70813;DHT22;62099;52.170;5.386;2022-10-31T17:43:09;13.50;83.20
70813;DHT22;62099;52.170;5.386;2022-10-31T17:45:38;13.60;83.40
70813;DHT22;62099;52.170;5.386;2022-10-31T17:48:06;13.60;83.50
70813;DHT22;62099;52.170;5.386;2022-10-31T17:50:33;14.00;83.90
70813;DHT22;62099;52.170;5.386;2022-10-31T17:52:59;13.80;84.00
70813;DHT22;62099;52.170;5.386;2022-10-31T17:58:02;13.80;84.40
70813;DHT22;62099;52.170;5.386;2022-10-31T18:02:56;14.60;85.00
70813;DHT22;62099;52.170;5.386;2022-10-31T18:05:23;15.50;85.50
70813;DHT22;62099;52.170;5.386;2022-10-31T18:07:49;13.50;84.80
70813;DHT22;62099;52.170;5.386;2022-10-31T18:10:16;13.00;84.80
70813;DHT22;62099;52.170;5.386;2022-10-31T18:12:43;13.70;85.20
70813;DHT22;62099;52.170;5.386;2022-10-31T18:17:37;13.00;85.40
70813;DHT22;62099;52.170;5.386;2022-10-31T18:20:08;14.50;85.90
70813;DHT22;62099;52.170;5.386;2022-10-31T18:22:35;13.30;85.40
70813;DHT22;62099;52.170;5.386;2022-10-31T18:25:03;16.20;86.90
70813;DHT22;62099;52.170;5.386;2022-10-31T18:29:57;13.00;86.00
70813;DHT22;62099;52.170;5.386;2022-10-31T18:32:24;12.90;85.90
70813;DHT22;62099;52.170;5.386;2022-10-31T18:34:50;15.10;86.80
70813;DHT22;62099;52.170;5.386;2022-10-31T18:37:17;13.10;86.20
70813;DHT22;62099;52.170;5.386;2022-10-31T18:42:11;15.70;87.50
70813;DHT22;62099;52.170;5.386;2022-10-31T18:44:38;15.70;87.40
70813;DHT22;62099;52.170;5.386;2022-10-31T18:47:04;12.70;86.10
70813;DHT22;62099;52.170;5.386;2022-10-31T18:51:58;12.80;86.30
70813;DHT22;62099;52.170;5.386;2022-10-31T18:54:26;14.20;87.00
70813;DHT22;62099;52.170;5.386;2022-10-31T18:59:21;14.70;85.10
70813;DHT22;62099;52.170;5.386;2022-10-31T19:01:48;15.50;88.00
70813;DHT22;62099;52.170;5.386;2022-10-31T19:04:14;13.90;83.70
70813;DHT22;62099;52.170;5.386;2022-10-31T19:06:41;13.20;86.90
70813;DHT22;62099;52.170;5.386;2022-10-31T19:11:36;12.50;86.80
70813;DHT22;62099;52.170;5.386;2022-10-31T19:14:03;15.00;87.80
70813;DHT22;62099;52.170;5.386;2022-10-31T19:16:31;14.50;88.00
70813;DHT22;62099;52.170;5.386;2022-10-31T19:18:57;12.50;87.10
70813;DHT22;62099;52.170;5.386;2022-10-31T19:23:53;13.80;83.60
70813;DHT22;62099;52.170;5.386;2022-10-31T19:26:22;15.80;88.70
70813;DHT22;62099;52.170;5.386;2022-10-31T19:28:48;12.90;87.20
70813;DHT22;62099;52.170;5.386;2022-10-31T19:31:15;12.90;87.30
70813;DHT22;62099;52.170;5.386;2022-10-31T19:33:44;12.90;87.20
70813;DHT22;62099;52.170;5.386;2022-10-31T19:36:14;12.90;87.20
70813;DHT22;62099;52.170;5.386;2022-10-31T19:38:42;13.10;87.30
70813;DHT22;62099;52.170;5.386;2022-10-31T19:41:13;13.90;87.50
70813;DHT22;62099;52.170;5.386;2022-10-31T19:43:40;14.00;87.30
70813;DHT22;62099;52.170;5.386;2022-10-31T19:46:07;13.30;86.80
70813;DHT22;62099;52.170;5.386;2022-10-31T19:48:53;15.30;87.70
70813;DHT22;62099;52.170;5.386;2022-10-31T19:51:20;14.40;87.30
70813;DHT22;62099;52.170;5.386;2022-10-31T19:53:47;15.00;87.50
70813;DHT22;62099;52.170;5.386;2022-10-31T19:56:23;14.90;87.60
70813;DHT22;62099;52.170;5.386;2022-10-31T19:58:50;13.10;86.80
70813;DHT22;62099;52.170;5.386;2022-10-31T20:01:20;13.70;87.00
70813;DHT22;62099;52.170;5.386;2022-10-31T20:03:48;13.70;82.60
70813;DHT22;62099;52.170;5.386;2022-10-31T20:06:21;13.30;85.60
70813;DHT22;62099;52.170;5.386;2022-10-31T20:08:49;13.20;85.00
70813;DHT22;62099;52.170;5.386;2022-10-31T20:11:15;13.70;83.10
70813;DHT22;62099;52.170;5.386;2022-10-31T20:13:42;13.50;86.80